sensor_id;sensor_type;location;lat;lon;timestamp;temperature;humidity
41762;DHT22;27441;50.860;0.258;2022-11-30T00:00:52;7.60;99.90
41762;DHT22;27441;50.860;0.258;2022-11-30T00:03:18;7.60;99.90
41762;DHT22;27441;50.860;0.258;2022-11-30T00:05:44;7.70;99.90
41762;DHT22;27441;50.860;0.258;2022-11-30T00:08:10;7.60;99.90
41762;DHT22;27441;50.860;0.258;2022-11-30T00:10:37;7.70;99.90
41762;DHT22;27441;50.860;0.258;2022-11-30T00:13:03;7.70;99.90
41762;DHT22;27441;50.860;0.258;2022-11-30T00:15:29;7.70;99.90
41762;DHT22;27441;50.860;0.258;2022-11-30T00:17:56;7.70;99.90
41762;DHT22;27441;50.860;0.258;2022-11-30T00:20:22;7.70;99.90
41762;DHT22;27441;50.860;0.258;2022-11-30T00:22:48;7.70;99.90
41762;DHT22;27441;50.860;0.258;2022-11-30T00:25:13;7.70;99.90
41762;DHT22;27441;50.860;0.258;2022-11-30T00:27:39;7.70;99.90
41762;DHT22;27441;50.860;0.258;2022-11-30T00:30:05;7.70;99.90
41762;DHT22;27441;50.860;0.258;2022-11-30T00:32:31;7.70;99.90
41762;DHT22;27441;50.860;0.258;2022-11-30T00:34:57;7.80;99.90
41762;DHT22;27441;50.860;0.258;2022-11-30T00:37:23;7.80;99.90
41762;DHT22;27441;50.860;0.258;2022-11-30T00:39:49;7.70;99.90
41762;DHT22;27441;50.860;0.258;2022-11-30T00:42:15;7.70;99.90
41762;DHT22;27441;50.860;0.258;2022-11-30T00:44:40;7.70;99.90
41762;DHT22;27441;50.860;0.258;2022-11-30T00:47:06;7.60;99.90
41762;DHT22;27441;50.860;0.258;2022-11-30T00:49:32;7.60;99.90
41762;DHT22;27441;50.860;0.258;2022-11-30T00:51:59;7.60;99.90
41762;DHT22;27441;50.860;0.258;2022-11-30T00:54:25;7.60;99.90
41762;DHT22;27441;50.860;0.258;2022-11-30T00:56:51;7.60;99.90
41762;DHT22;27441;50.860;0.258;2022-11-30T00:59:16;7.60;99.90
41762;DHT22;27441;50.860;0.258;2022-11-30T01:01:42;7.50;99.90
41762;DHT22;27441;50.860;0.258;2022-11-30T01:04:08;7.60;99.90
41762;DHT22;27441;50.860;0.258;2022-11-30T01:06:33;7.60;99.90
41762;DHT22;27441;50.860;0.258;2022-11-30T01:08:59;7.50;99.90
41762;DHT22;27441;50.860;0.258;2022-11-30T01:11:28;7.50;99.90
41762;DHT22;27441;50.860;0.258;2022-11-30T01:13:56;7.50;99.90
41762;DHT22;27441;50.860;0.258;2022-11-30T01:16:26;7.40;99.90
41762;DHT22;27441;50.860;0.258;2022-11-30T01:18:52;7.40;99.90
41762;DHT22;27441;50.860;0.258;2022-11-30T01:21:21;7.40;99.90
41762;DHT22;27441;50.860;0.258;2022-11-30T01:23:48;7.30;99.90
41762;DHT22;27441;50.860;0.258;2022-11-30T01:26:14;7.30;99.90
41762;DHT22;27441;50.860;0.258;2022-11-30T01:28:40;7.30;99.90
41762;DHT22;27441;50.860;0.258;2022-11-30T01:31:10;7.30;99.90
41762;DHT22;27441;50.860;0.258;2022-11-30T01:33:37;7.20;99.90
41762;DHT22;27441;50.860;0.258;2022-11-30T01:36:14;7.30;99.90
41762;DHT22;27441;50.860;0.258;2022-11-30T01:38:51;7.30;99.90
41762;DHT22;27441;50.860;0.258;2022-11-30T01:41:19;7.30;99.90
41762;DHT22;27441;50.860;0.258;2022-11-30T01:43:52;7.30;99.90
41762;DHT22;27441;50.860;0.258;2022-11-30T01:51:39;7.30;99.90
41762;DHT22;27441;50.860;0.258;2022-11-30T01:54:09;7.20;99.90
41762;DHT22;27441;50.860;0.258;2022-11-30T01:56:46;7.30;99.90
41762;DHT22;27441;50.860;0.258;2022-11-30T01:59:13;7.30;99.90
41762;DHT22;27441;50.860;0.258;2022-11-30T02:01:40;7.30;99.90
41762;DHT22;27441;50.860;0.258;2022-11-30T02:07:06;7.30;99.90
41762;DHT22;27441;50.860;0.258;2022-11-30T02:09:39;7.30;99.90
41762;DHT22;27441;50.860;0.258;2022-11-30T02:12:10;7.40;99.90
41762;DHT22;27441;50.860;0.258;2022-11-30T02:14:45;7.40;99.90
41762;DHT22;27441;50.860;0.258;2022-11-30T02:23:35;7.40;99.90
41762;DHT22;27441;50.860;0.258;2022-11-30T02:26:33;7.40;99.90
41762;DHT22;27441;50.860;0.258;2022-11-30T02:32:27;7.50;99.90
41762;DHT22;27441;50.860;0.258;2022-11-30T02:34:57;7.40;99.90
41762;DHT22;27441;50.860;0.258;2022-11-30T02:37:24;7.50;99.90
41762;DHT22;27441;50.860;0.258;2022-11-30T02:39:50;7.40;99.90
41762;DHT22;27441;50.860;0.258;2022-11-30T02:42:15;7.50;99.90
41762;DHT22;27441;50.860;0.258;2022-11-30T02:44:48;7.50;99.90
41762;DHT22;27441;50.860;0.258;2022-11-30T02:47:39;7.50;99.90
41762;DHT22;27441;50.860;0.258;2022-11-30T02:50:13;7.50;99.90
41762;DHT22;27441;50.860;0.258;2022-11-30T02:52:40;7.50;99.90
41762;DHT22;27441;50.860;0.258;2022-11-30T02:55:09;7.50;99.90
41762;DHT22;27441;50.860;0.258;2022-11-30T02:57:35;7.50;99.90
41762;DHT22;27441;50.860;0.258;2022-11-30T03:00:06;7.50;99.90
41762;DHT22;27441;50.860;0.258;2022-11-30T03:02:32;7.50;99.90
41762;DHT22;27441;50.860;0.258;2022-11-30T03:04:58;7.50;99.90
41762;DHT22;27441;50.860;0.258;2022-11-30T03:07:23;7.50;99.90
41762;DHT22;27441;50.860;0.258;2022-11-30T03:09:49;7.50;99.90
41762;DHT22;27441;50.860;0.258;2022-11-30T03:12:15;7.60;99.90
41762;DHT22;27441;50.860;0.258;2022-11-30T03:14:41;7.60;99.90
41762;DHT22;27441;50.860;0.258;2022-11-30T03:17:07;7.60;99.90
41762;DHT22;27441;50.860;0.258;2022-11-30T03:19:33;7.60;99.90
41762;DHT22;27441;50.860;0.258;2022-11-30T03:21:59;7.60;99.90
41762;DHT22;27441;50.860;0.258;2022-11-30T03:24:25;7.60;99.90
41762;DHT22;27441;50.860;0.258;2022-11-30T03:26:51;7.60;99.90
41762;DHT22;27441;50.860;0.258;2022-11-30T03:29:17;7.60;99.90
41762;DHT22;27441;50.860;0.258;2022-11-30T03:31:43;7.60;99.90
41762;DHT22;27441;50.860;0.258;2022-11-30T03:34:09;7.60;99.90
41762;DHT22;27441;50.860;0.258;2022-11-30T03:36:35;7.70;99.90
41762;DHT22;27441;50.860;0.258;2022-11-30T03:39:01;7.60;99.90
41762;DHT22;27441;50.860;0.258;2022-11-30T03:41:26;7.60;99.90
41762;DHT22;27441;50.860;0.258;2022-11-30T03:43:52;7.60;99.90
41762;DHT22;27441;50.860;0.258;2022-11-30T03:46:18;7.60;99.90
41762;DHT22;27441;50.860;0.258;2022-11-30T03:48:44;7.60;99.90
41762;DHT22;27441;50.860;0.258;2022-11-30T03:51:11;7.70;99.90
41762;DHT22;27441;50.860;0.258;2022-11-30T03:53:37;7.70;99.90
41762;DHT22;27441;50.860;0.258;2022-11-30T03:56:05;7.60;99.90
41762;DHT22;27441;50.860;0.258;2022-11-30T03:58:32;7.60;99.90
41762;DHT22;27441;50.860;0.258;2022-11-30T04:01:09;7.60;99.90
41762;DHT22;27441;50.860;0.258;2022-11-30T04:03:35;7.60;99.90
41762;DHT22;27441;50.860;0.258;2022-11-30T04:06:03;7.60;99.90
41762;DHT22;27441;50.860;0.258;2022-11-30T04:08:29;7.60;99.90
41762;DHT22;27441;50.860;0.258;2022-11-30T04:10:57;7.60;99.90
41762;DHT22;27441;50.860;0.258;2022-11-30T04:13:24;7.60;99.90
41762;DHT22;27441;50.860;0.258;2022-11-30T04:15:50;7.60;99.90
41762;DHT22;27441;50.860;0.258;2022-11-30T04:18:17;7.60;99.90
41762;DHT22;27441;50.860;0.258;2022-11-30T04:20:43;7.60;99.90
41762;DHT22;27441;50.860;0.258;2022-11-30T04:23:09;7.50;99.90
41762;DHT22;27441;50.860;0.258;2022-11-30T04:25:39;7.50;99.90
41762;DHT22;27441;50.860;0.258;2022-11-30T04:28:05;7.40;99.90
41762;DHT22;27441;50.860;0.258;2022-11-30T04:30:32;7.30;99.90
41762;DHT22;27441;50.860;0.258;2022-11-30T04:32:58;7.30;99.90
41762;DHT22;27441;50.860;0.258;2022-11-30T04:35:24;7.40;99.90
41762;DHT22;27441;50.860;0.258;2022-11-30T04:37:50;7.40;99.90
41762;DHT22;27441;50.860;0.258;2022-11-30T04:40:16;7.40;99.90
41762;DHT22;27441;50.860;0.258;2022-11-30T04:42:41;7.40;99.90
41762;DHT22;27441;50.860;0.258;2022-11-30T04:45:08;7.50;99.90
41762;DHT22;27441;50.860;0.258;2022-11-30T04:47:33;7.50;99.90
41762;DHT22;27441;50.860;0.258;2022-11-30T04:49:59;7.50;99.90
41762;DHT22;27441;50.860;0.258;2022-11-30T04:52:25;7.50;99.90
41762;DHT22;27441;50.860;0.258;2022-11-30T04:54:51;7.50;99.90
41762;DHT22;27441;50.860;0.258;2022-11-30T04:57:17;7.50;99.90
41762;DHT22;27441;50.860;0.258;2022-11-30T04:59:43;7.50;99.90
41762;DHT22;27441;50.860;0.258;2022-11-30T05:02:09;7.50;99.90
41762;DHT22;27441;50.860;0.258;2022-11-30T05:04:35;7.50;99.90
41762;DHT22;27441;50.860;0.258;2022-11-30T05:07:00;7.50;99.90
41762;DHT22;27441;50.860;0.258;2022-11-30T05:09:26;7.50;99.90
41762;DHT22;27441;50.860;0.258;2022-11-30T05:11:52;7.50;99.90
41762;DHT22;27441;50.860;0.258;2022-11-30T05:14:18;7.50;99.90
41762;DHT22;27441;50.860;0.258;2022-11-30T05:16:46;7.50;99.90
41762;DHT22;27441;50.860;0.258;2022-11-30T05:19:12;7.50;99.90
41762;DHT22;27441;50.860;0.258;2022-11-30T05:21:39;7.50;99.90
41762;DHT22;27441;50.860;0.258;2022-11-30T05:24:06;7.50;99.90
41762;DHT22;27441;50.860;0.258;2022-11-30T05:26:31;7.40;99.90
41762;DHT22;27441;50.860;0.258;2022-11-30T05:28:57;7.40;99.90
41762;DHT22;27441;50.860;0.258;2022-11-30T05:31:23;7.40;99.90
41762;DHT22;27441;50.860;0.258;2022-11-30T05:33:50;7.40;99.90
41762;DHT22;27441;50.860;0.258;2022-11-30T05:36:16;7.40;99.90
41762;DHT22;27441;50.860;0.258;2022-11-30T05:38:41;7.40;99.90
41762;DHT22;27441;50.860;0.258;2022-11-30T05:41:07;7.30;99.90
41762;DHT22;27441;50.860;0.258;2022-11-30T05:43:33;7.30;99.90
41762;DHT22;27441;50.860;0.258;2022-11-30T05:46:03;7.20;99.90
41762;DHT22;27441;50.860;0.258;2022-11-30T05:48:29;7.20;99.90
41762;DHT22;27441;50.860;0.258;2022-11-30T05:51:04;7.10;99.90
41762;DHT22;27441;50.860;0.258;2022-11-30T05:53:29;7.00;99.90
41762;DHT22;27441;50.860;0.258;2022-11-30T05:55:55;7.00;99.90
41762;DHT22;27441;50.860;0.258;2022-11-30T05:58:21;7.00;99.90
41762;DHT22;27441;50.860;0.258;2022-11-30T06:00:46;7.00;99.90
41762;DHT22;27441;50.860;0.258;2022-11-30T06:03:12;7.00;99.90
41762;DHT22;27441;50.860;0.258;2022-11-30T06:05:38;7.00;99.90
41762;DHT22;27441;50.860;0.258;2022-11-30T06:08:03;7.00;99.90
41762;DHT22;27441;50.860;0.258;2022-11-30T06:10:29;7.00;99.90
41762;DHT22;27441;50.860;0.258;2022-11-30T06:12:55;7.00;99.90
41762;DHT22;27441;50.860;0.258;2022-11-30T06:15:20;7.00;99.90
41762;DHT22;27441;50.860;0.258;2022-11-30T06:17:46;7.00;99.90
41762;DHT22;27441;50.860;0.258;2022-11-30T06:20:12;7.00;99.90
41762;DHT22;27441;50.860;0.258;2022-11-30T06:22:38;7.10;99.90
41762;DHT22;27441;50.860;0.258;2022-11-30T06:25:04;7.10;99.90
41762;DHT22;27441;50.860;0.258;2022-11-30T06:27:30;7.10;99.90
41762;DHT22;27441;50.860;0.258;2022-11-30T06:29:56;7.10;99.90
41762;DHT22;27441;50.860;0.258;2022-11-30T06:32:22;7.10;99.90
41762;DHT22;27441;50.860;0.258;2022-11-30T06:34:48;7.00;99.90
41762;DHT22;27441;50.860;0.258;2022-11-30T06:37:14;7.00;99.90
41762;DHT22;27441;50.860;0.258;2022-11-30T06:39:39;7.00;99.90
41762;DHT22;27441;50.860;0.258;2022-11-30T06:42:05;7.00;99.90
41762;DHT22;27441;50.860;0.258;2022-11-30T06:44:31;6.90;99.90
41762;DHT22;27441;50.860;0.258;2022-11-30T06:46:56;6.90;99.90
41762;DHT22;27441;50.860;0.258;2022-11-30T06:49:22;6.90;99.90
41762;DHT22;27441;50.860;0.258;2022-11-30T06:51:47;6.90;99.90
41762;DHT22;27441;50.860;0.258;2022-11-30T06:54:13;6.90;99.90
41762;DHT22;27441;50.860;0.258;2022-11-30T06:56:39;6.90;99.90
41762;DHT22;27441;50.860;0.258;2022-11-30T06:59:05;6.80;99.90
41762;DHT22;27441;50.860;0.258;2022-11-30T07:01:31;6.80;99.90
41762;DHT22;27441;50.860;0.258;2022-11-30T07:03:56;6.80;99.90
41762;DHT22;27441;50.860;0.258;2022-11-30T07:06:22;6.70;99.90
41762;DHT22;27441;50.860;0.258;2022-11-30T07:08:48;6.70;99.90
41762;DHT22;27441;50.860;0.258;2022-11-30T07:11:14;6.70;99.90
41762;DHT22;27441;50.860;0.258;2022-11-30T07:13:40;6.70;99.90
41762;DHT22;27441;50.860;0.258;2022-11-30T07:16:07;6.70;99.90
41762;DHT22;27441;50.860;0.258;2022-11-30T07:18:34;6.60;99.90
41762;DHT22;27441;50.860;0.258;2022-11-30T07:21:02;6.50;99.90
41762;DHT22;27441;50.860;0.258;2022-11-30T07:23:28;6.50;99.90
41762;DHT22;27441;50.860;0.258;2022-11-30T07:26:13;6.50;99.90
41762;DHT22;27441;50.860;0.258;2022-11-30T07:28:43;6.40;99.90
41762;DHT22;27441;50.860;0.258;2022-11-30T07:31:27;6.40;99.90
41762;DHT22;27441;50.860;0.258;2022-11-30T07:33:54;6.30;99.90
41762;DHT22;27441;50.860;0.258;2022-11-30T07:36:21;6.30;99.90
41762;DHT22;27441;50.860;0.258;2022-11-30T07:38:48;6.30;99.90
41762;DHT22;27441;50.860;0.258;2022-11-30T07:41:14;6.30;99.90
41762;DHT22;27441;50.860;0.258;2022-11-30T07:43:40;6.30;99.90
41762;DHT22;27441;50.860;0.258;2022-11-30T07:46:06;6.30;99.90
41762;DHT22;27441;50.860;0.258;2022-11-30T07:48:32;6.30;99.90
41762;DHT22;27441;50.860;0.258;2022-11-30T07:51:25;6.30;99.90
41762;DHT22;27441;50.860;0.258;2022-11-30T07:53:53;6.30;99.90
41762;DHT22;27441;50.860;0.258;2022-11-30T07:56:19;6.30;99.90
41762;DHT22;27441;50.860;0.258;2022-11-30T07:58:46;6.30;99.90
41762;DHT22;27441;50.860;0.258;2022-11-30T08:01:15;6.40;99.90
41762;DHT22;27441;50.860;0.258;2022-11-30T08:03:41;6.40;99.90
41762;DHT22;27441;50.860;0.258;2022-11-30T08:06:13;6.30;99.90
41762;DHT22;27441;50.860;0.258;2022-11-30T08:08:40;6.30;99.90
41762;DHT22;27441;50.860;0.258;2022-11-30T08:11:07;6.40;99.90
41762;DHT22;27441;50.860;0.258;2022-11-30T08:13:34;6.50;99.90
41762;DHT22;27441;50.860;0.258;2022-11-30T08:16:05;6.50;99.90
41762;DHT22;27441;50.860;0.258;2022-11-30T08:18:31;6.50;99.90
41762;DHT22;27441;50.860;0.258;2022-11-30T08:20:58;6.60;99.90
41762;DHT22;27441;50.860;0.258;2022-11-30T08:23:29;6.60;99.90
41762;DHT22;27441;50.860;0.258;2022-11-30T08:25:54;6.60;99.90
41762;DHT22;27441;50.860;0.258;2022-11-30T08:28:20;6.70;99.90
41762;DHT22;27441;50.860;0.258;2022-11-30T08:30:46;6.70;99.90
41762;DHT22;27441;50.860;0.258;2022-11-30T08:33:12;6.70;99.90
41762;DHT22;27441;50.860;0.258;2022-11-30T08:35:38;6.80;99.90
41762;DHT22;27441;50.860;0.258;2022-11-30T08:38:04;6.80;99.90
41762;DHT22;27441;50.860;0.258;2022-11-30T08:40:29;6.90;99.90
41762;DHT22;27441;50.860;0.258;2022-11-30T08:42:57;7.00;99.90
41762;DHT22;27441;50.860;0.258;2022-11-30T08:45:23;7.00;99.90
41762;DHT22;27441;50.860;0.258;2022-11-30T08:47:49;7.10;99.90
41762;DHT22;27441;50.860;0.258;2022-11-30T08:50:15;7.10;99.90
41762;DHT22;27441;50.860;0.258;2022-11-30T08:52:41;7.10;99.90
41762;DHT22;27441;50.860;0.258;2022-11-30T08:55:08;7.10;99.90
41762;DHT22;27441;50.860;0.258;2022-11-30T08:57:33;7.20;99.90
41762;DHT22;27441;50.860;0.258;2022-11-30T08:59:59;7.20;99.90
41762;DHT22;27441;50.860;0.258;2022-11-30T09:02:25;7.20;99.90
41762;DHT22;27441;50.860;0.258;2022-11-30T09:04:51;7.20;99.90
41762;DHT22;27441;50.860;0.258;2022-11-30T09:07:18;7.20;99.90
41762;DHT22;27441;50.860;0.258;2022-11-30T09:09:44;7.20;99.90
41762;DHT22;27441;50.860;0.258;2022-11-30T09:12:10;7.20;99.90
41762;DHT22;27441;50.860;0.258;2022-11-30T09:14:35;7.20;99.90
41762;DHT22;27441;50.860;0.258;2022-11-30T09:17:02;7.30;99.90
41762;DHT22;27441;50.860;0.258;2022-11-30T09:19:28;7.30;99.90
41762;DHT22;27441;50.860;0.258;2022-11-30T09:21:53;7.30;99.90
41762;DHT22;27441;50.860;0.258;2022-11-30T09:24:19;7.30;99.90
41762;DHT22;27441;50.860;0.258;2022-11-30T09:26:45;7.30;99.90
41762;DHT22;27441;50.860;0.258;2022-11-30T09:29:11;7.40;99.90
41762;DHT22;27441;50.860;0.258;2022-11-30T09:31:37;7.40;99.90
41762;DHT22;27441;50.860;0.258;2022-11-30T09:34:02;7.50;99.90
41762;DHT22;27441;50.860;0.258;2022-11-30T09:36:28;7.50;99.90
41762;DHT22;27441;50.860;0.258;2022-11-30T09:38:55;7.60;99.90
41762;DHT22;27441;50.860;0.258;2022-11-30T09:46:32;7.70;99.90
41762;DHT22;27441;50.860;0.258;2022-11-30T09:49:23;7.80;99.90
41762;DHT22;27441;50.860;0.258;2022-11-30T09:51:52;7.80;99.90
41762;DHT22;27441;50.860;0.258;2022-11-30T09:54:25;7.80;99.90
41762;DHT22;27441;50.860;0.258;2022-11-30T09:57:03;7.90;99.90
41762;DHT22;27441;50.860;0.258;2022-11-30T09:59:34;7.80;99.90
41762;DHT22;27441;50.860;0.258;2022-11-30T10:02:14;7.80;99.90
41762;DHT22;27441;50.860;0.258;2022-11-30T10:04:41;7.80;99.90
41762;DHT22;27441;50.860;0.258;2022-11-30T10:07:46;7.80;99.90
41762;DHT22;27441;50.860;0.258;2022-11-30T10:21:20;8.40;99.90
41762;DHT22;27441;50.860;0.258;2022-11-30T10:26:34;8.60;99.90
41762;DHT22;27441;50.860;0.258;2022-11-30T10:31:38;8.70;99.90
41762;DHT22;27441;50.860;0.258;2022-11-30T10:34:22;8.80;99.90
41762;DHT22;27441;50.860;0.258;2022-11-30T10:37:24;8.80;99.90
41762;DHT22;27441;50.860;0.258;2022-11-30T10:39:59;8.90;99.90
41762;DHT22;27441;50.860;0.258;2022-11-30T10:45:05;9.10;99.90
41762;DHT22;27441;50.860;0.258;2022-11-30T10:47:34;9.10;99.90
41762;DHT22;27441;50.860;0.258;2022-11-30T10:50:03;9.30;99.90
41762;DHT22;27441;50.860;0.258;2022-11-30T10:52:35;9.30;99.90
41762;DHT22;27441;50.860;0.258;2022-11-30T10:55:18;9.30;99.90
41762;DHT22;27441;50.860;0.258;2022-11-30T10:57:46;9.20;99.90
41762;DHT22;27441;50.860;0.258;2022-11-30T11:00:13;9.10;99.90
41762;DHT22;27441;50.860;0.258;2022-11-30T11:02:44;9.10;99.90
41762;DHT22;27441;50.860;0.258;2022-11-30T11:10:29;9.20;99.90
41762;DHT22;27441;50.860;0.258;2022-11-30T11:12:56;9.10;99.90
41762;DHT22;27441;50.860;0.258;2022-11-30T11:15:31;9.10;99.90
41762;DHT22;27441;50.860;0.258;2022-11-30T11:20:40;9.40;99.90
41762;DHT22;27441;50.860;0.258;2022-11-30T11:23:45;9.50;99.90
41762;DHT22;27441;50.860;0.258;2022-11-30T11:26:27;9.40;99.90
41762;DHT22;27441;50.860;0.258;2022-11-30T11:28:55;9.30;99.90
41762;DHT22;27441;50.860;0.258;2022-11-30T11:31:40;9.20;99.90
41762;DHT22;27441;50.860;0.258;2022-11-30T11:34:30;9.10;99.90
41762;DHT22;27441;50.860;0.258;2022-11-30T11:37:06;9.10;99.90
41762;DHT22;27441;50.860;0.258;2022-11-30T11:39:32;9.10;99.90
41762;DHT22;27441;50.860;0.258;2022-11-30T11:41:59;9.20;99.90
41762;DHT22;27441;50.860;0.258;2022-11-30T11:44:26;9.10;99.90
41762;DHT22;27441;50.860;0.258;2022-11-30T11:46:57;9.10;99.90
41762;DHT22;27441;50.860;0.258;2022-11-30T11:49:30;9.20;99.90
41762;DHT22;27441;50.860;0.258;2022-11-30T11:54:55;9.40;99.90
41762;DHT22;27441;50.860;0.258;2022-11-30T11:57:33;9.30;99.90
41762;DHT22;27441;50.860;0.258;2022-11-30T12:08:11;9.00;99.90
41762;DHT22;27441;50.860;0.258;2022-11-30T12:11:04;9.10;99.90
41762;DHT22;27441;50.860;0.258;2022-11-30T12:13:37;9.00;99.90
41762;DHT22;27441;50.860;0.258;2022-11-30T12:24:55;8.70;99.90
41762;DHT22;27441;50.860;0.258;2022-11-30T12:27:40;8.70;99.90
41762;DHT22;27441;50.860;0.258;2022-11-30T12:35:56;8.80;99.90
41762;DHT22;27441;50.860;0.258;2022-11-30T12:38:48;8.90;99.90
41762;DHT22;27441;50.860;0.258;2022-11-30T12:41:43;8.90;99.90
41762;DHT22;27441;50.860;0.258;2022-11-30T12:50:32;8.90;99.90
41762;DHT22;27441;50.860;0.258;2022-11-30T13:04:32;8.90;99.90
41762;DHT22;27441;50.860;0.258;2022-11-30T13:07:19;8.90;99.90
41762;DHT22;27441;50.860;0.258;2022-11-30T13:10:15;8.70;99.90
41762;DHT22;27441;50.860;0.258;2022-11-30T13:12:45;8.70;99.90
41762;DHT22;27441;50.860;0.258;2022-11-30T13:15:20;8.70;99.90
41762;DHT22;27441;50.860;0.258;2022-11-30T13:17:47;8.60;99.90
41762;DHT22;27441;50.860;0.258;2022-11-30T13:20:25;8.50;99.90
41762;DHT22;27441;50.860;0.258;2022-11-30T13:23:04;8.50;99.90
41762;DHT22;27441;50.860;0.258;2022-11-30T13:25:46;8.50;99.90
41762;DHT22;27441;50.860;0.258;2022-11-30T13:30:52;8.40;99.90
41762;DHT22;27441;50.860;0.258;2022-11-30T13:36:02;8.40;99.90
41762;DHT22;27441;50.860;0.258;2022-11-30T13:38:28;8.50;99.90
41762;DHT22;27441;50.860;0.258;2022-11-30T13:41:03;8.50;99.90
41762;DHT22;27441;50.860;0.258;2022-11-30T13:43:35;8.50;99.90
41762;DHT22;27441;50.860;0.258;2022-11-30T13:46:06;8.50;99.90
41762;DHT22;27441;50.860;0.258;2022-11-30T13:48:39;8.50;99.90
41762;DHT22;27441;50.860;0.258;2022-11-30T13:51:05;8.60;99.90
41762;DHT22;27441;50.860;0.258;2022-11-30T13:53:33;8.60;99.90
41762;DHT22;27441;50.860;0.258;2022-11-30T13:58:34;8.70;99.90
41762;DHT22;27441;50.860;0.258;2022-11-30T14:01:00;8.60;99.90
41762;DHT22;27441;50.860;0.258;2022-11-30T14:03:31;8.70;99.90
41762;DHT22;27441;50.860;0.258;2022-11-30T14:06:03;8.60;99.90
41762;DHT22;27441;50.860;0.258;2022-11-30T14:08:32;8.60;99.90
41762;DHT22;27441;50.860;0.258;2022-11-30T14:13:42;8.60;99.90
41762;DHT22;27441;50.860;0.258;2022-11-30T14:16:26;8.60;99.90
41762;DHT22;27441;50.860;0.258;2022-11-30T14:18:55;8.50;99.90
41762;DHT22;27441;50.860;0.258;2022-11-30T14:24:05;8.50;99.90
41762;DHT22;27441;50.860;0.258;2022-11-30T14:26:43;8.40;99.90
41762;DHT22;27441;50.860;0.258;2022-11-30T14:34:24;8.40;99.90
41762;DHT22;27441;50.860;0.258;2022-11-30T14:36:55;8.30;99.90
41762;DHT22;27441;50.860;0.258;2022-11-30T14:39:25;8.20;99.90
41762;DHT22;27441;50.860;0.258;2022-11-30T14:41:51;8.20;99.90
41762;DHT22;27441;50.860;0.258;2022-11-30T14:44:17;8.20;99.90
41762;DHT22;27441;50.860;0.258;2022-11-30T14:46:43;8.10;99.90
41762;DHT22;27441;50.860;0.258;2022-11-30T14:49:18;8.10;99.90
41762;DHT22;27441;50.860;0.258;2022-11-30T14:52:04;8.10;99.90
41762;DHT22;27441;50.860;0.258;2022-11-30T14:55:32;8.00;99.90
41762;DHT22;27441;50.860;0.258;2022-11-30T14:57:43;8.00;99.90
41762;DHT22;27441;50.860;0.258;2022-11-30T15:00:16;8.00;99.90
41762;DHT22;27441;50.860;0.258;2022-11-30T15:02:43;8.00;99.90
41762;DHT22;27441;50.860;0.258;2022-11-30T15:05:15;8.00;99.90
41762;DHT22;27441;50.860;0.258;2022-11-30T15:07:44;8.00;99.90
41762;DHT22;27441;50.860;0.258;2022-11-30T15:10:14;7.90;99.90
41762;DHT22;27441;50.860;0.258;2022-11-30T15:12:41;7.90;99.90
41762;DHT22;27441;50.860;0.258;2022-11-30T15:15:13;7.80;99.90
41762;DHT22;27441;50.860;0.258;2022-11-30T15:18:15;7.80;99.90
41762;DHT22;27441;50.860;0.258;2022-11-30T15:21:00;7.80;99.90
41762;DHT22;27441;50.860;0.258;2022-11-30T15:23:27;7.80;99.90
41762;DHT22;27441;50.860;0.258;2022-11-30T15:26:03;7.80;99.90
41762;DHT22;27441;50.860;0.258;2022-11-30T15:28:35;7.80;99.90
41762;DHT22;27441;50.860;0.258;2022-11-30T15:31:05;7.80;99.90
41762;DHT22;27441;50.860;0.258;2022-11-30T15:33:39;7.70;99.90
41762;DHT22;27441;50.860;0.258;2022-11-30T15:36:06;7.70;99.90
41762;DHT22;27441;50.860;0.258;2022-11-30T15:38:33;7.60;99.90
41762;DHT22;27441;50.860;0.258;2022-11-30T15:41:03;7.60;99.90
41762;DHT22;27441;50.860;0.258;2022-11-30T15:43:34;7.60;99.90
41762;DHT22;27441;50.860;0.258;2022-11-30T15:46:02;7.50;99.90
41762;DHT22;27441;50.860;0.258;2022-11-30T15:48:39;7.50;99.90
41762;DHT22;27441;50.860;0.258;2022-11-30T15:51:05;7.40;99.90
41762;DHT22;27441;50.860;0.258;2022-11-30T15:53:47;7.40;99.90
41762;DHT22;27441;50.860;0.258;2022-11-30T15:56:25;7.30;99.90
41762;DHT22;27441;50.860;0.258;2022-11-30T16:01:30;7.20;99.90
41762;DHT22;27441;50.860;0.258;2022-11-30T16:07:16;7.10;99.90
41762;DHT22;27441;50.860;0.258;2022-11-30T16:09:42;7.00;99.90
41762;DHT22;27441;50.860;0.258;2022-11-30T16:12:20;7.00;99.90
41762;DHT22;27441;50.860;0.258;2022-11-30T16:14:46;6.90;99.90
41762;DHT22;27441;50.860;0.258;2022-11-30T16:17:12;6.80;99.90
41762;DHT22;27441;50.860;0.258;2022-11-30T16:19:38;6.80;99.90
41762;DHT22;27441;50.860;0.258;2022-11-30T16:22:04;6.80;99.90
41762;DHT22;27441;50.860;0.258;2022-11-30T16:24:29;6.70;99.90
41762;DHT22;27441;50.860;0.258;2022-11-30T16:26:55;6.60;99.90
41762;DHT22;27441;50.860;0.258;2022-11-30T16:29:21;6.60;99.90
41762;DHT22;27441;50.860;0.258;2022-11-30T16:31:47;6.50;99.90
41762;DHT22;27441;50.860;0.258;2022-11-30T16:34:13;6.50;99.90
41762;DHT22;27441;50.860;0.258;2022-11-30T16:36:39;6.40;99.90
41762;DHT22;27441;50.860;0.258;2022-11-30T16:39:05;6.40;99.90
41762;DHT22;27441;50.860;0.258;2022-11-30T16:41:31;6.30;99.90
41762;DHT22;27441;50.860;0.258;2022-11-30T16:43:59;6.30;99.90
41762;DHT22;27441;50.860;0.258;2022-11-30T16:46:27;6.20;99.90
41762;DHT22;27441;50.860;0.258;2022-11-30T16:48:53;6.20;99.90
41762;DHT22;27441;50.860;0.258;2022-11-30T16:51:26;6.10;99.90
41762;DHT22;27441;50.860;0.258;2022-11-30T16:53:53;6.00;99.90
41762;DHT22;27441;50.860;0.258;2022-11-30T16:56:19;6.00;99.90
41762;DHT22;27441;50.860;0.258;2022-11-30T16:58:45;5.90;99.90
41762;DHT22;27441;50.860;0.258;2022-11-30T17:01:31;5.90;99.90
41762;DHT22;27441;50.860;0.258;2022-11-30T17:03:58;5.90;99.90
41762;DHT22;27441;50.860;0.258;2022-11-30T17:06:24;5.80;99.90
41762;DHT22;27441;50.860;0.258;2022-11-30T17:08:54;5.80;99.90
41762;DHT22;27441;50.860;0.258;2022-11-30T17:13:51;5.70;99.90
41762;DHT22;27441;50.860;0.258;2022-11-30T17:16:17;5.70;99.90
41762;DHT22;27441;50.860;0.258;2022-11-30T17:18:43;5.70;99.90
41762;DHT22;27441;50.860;0.258;2022-11-30T17:21:17;5.70;99.90
41762;DHT22;27441;50.860;0.258;2022-11-30T17:23:44;5.70;99.90
41762;DHT22;27441;50.860;0.258;2022-11-30T17:26:11;5.60;99.90
41762;DHT22;27441;50.860;0.258;2022-11-30T17:28:37;5.60;99.90
41762;DHT22;27441;50.860;0.258;2022-11-30T17:31:03;5.50;99.90
41762;DHT22;27441;50.860;0.258;2022-11-30T17:33:33;5.50;99.90
41762;DHT22;27441;50.860;0.258;2022-11-30T17:36:00;5.50;99.90
41762;DHT22;27441;50.860;0.258;2022-11-30T17:38:27;5.50;99.90
41762;DHT22;27441;50.860;0.258;2022-11-30T17:40:53;5.50;99.90
41762;DHT22;27441;50.860;0.258;2022-11-30T17:43:20;5.50;99.90
41762;DHT22;27441;50.860;0.258;2022-11-30T17:45:46;5.50;99.90
41762;DHT22;27441;50.860;0.258;2022-11-30T17:48:12;5.50;99.90
41762;DHT22;27441;50.860;0.258;2022-11-30T17:50:40;5.50;99.90
41762;DHT22;27441;50.860;0.258;2022-11-30T17:53:06;5.50;99.90
41762;DHT22;27441;50.860;0.258;2022-11-30T17:55:33;5.50;99.90
41762;DHT22;27441;50.860;0.258;2022-11-30T17:57:59;5.40;99.90